Time;durP1;ratioP1;P1;durP2;ratioP2;P2;SDS_P1;SDS_P2;PMS_P1;PMS_P2;Temp;Humidity;BMP_temperature;BMP_pressure;BME280_temperature;BME280_humidity;BME280_pressure;Samples;Min_cycle;Max_cycle;Signal;HPM_P1;HPM_P2
2023/11/18 00:01:08;;;;;;;2.28;0.95;;;;;;;;;;5062982;28;20108;-58
2023/11/18 00:03:35;;;;;;;2.63;1.23;;;;;;;;;;5054076;28;20134;-58
2023/11/18 00:06:03;;;;;;;2.13;1.25;;;;;;;;;;5075396;28;20486;-59
2023/11/18 00:08:30;;;;;;;1.48;0.82;;;;;;;;;;5075738;28;20360;-59
2023/11/18 00:10:57;;;;;;;2.25;0.70;;;;;;;;;;5075695;28;20032;-59
2023/11/18 00:13:26;;;;;;;2.28;0.95;;;;;;;;;;5075838;28;20060;-59
2023/11/18 00:15:53;;;;;;;3.90;1.08;;;;;;;;;;5043320;28;20036;-59
2023/11/18 00:18:19;;;;;;;1.38;0.85;;;;;;;;;;5050568;28;20445;-59
2023/11/18 00:20:46;;;;;;;1.77;0.68;;;;;;;;;;5050527;28;20025;-59
2023/11/18 00:23:13;;;;;;;2.53;1.08;;;;;;;;;;5050257;28;20111;-59
2023/11/18 00:25:40;;;;;;;5.70;1.10;;;;;;;;;;5051308;28;20078;-60
2023/11/18 00:28:09;;;;;;;9.88;1.08;;;;;;;;;;5053795;28;20043;-59
2023/11/18 00:30:36;;;;;;;0.43;0.40;;;;;;;;;;5057323;28;20378;-59
2023/11/18 00:33:03;;;;;;;2.63;0.98;;;;;;;;;;5073244;28;20363;-59
2023/11/18 00:35:31;;;;;;;2.15;1.10;;;;;;;;;;5073292;28;20025;-59
2023/11/18 00:37:59;;;;;;;3.83;1.67;;;;;;;;;;5075309;28;20032;-59
2023/11/18 00:40:29;;;;;;;2.33;1.15;;;;;;;;;;5070792;28;20481;-59
2023/11/18 00:42:58;;;;;;;4.47;1.50;;;;;;;;;;5070000;28;20025;-59
2023/11/18 00:45:26;;;;;;;1.08;0.82;;;;;;;;;;5068227;28;20032;-59
2023/11/18 00:47:54;;;;;;;2.55;0.95;;;;;;;;;;5069815;28;20032;-59
2023/11/18 00:50:21;;;;;;;1.13;0.85;;;;;;;;;;5073142;28;20483;-59
2023/11/18 00:52:49;;;;;;;8.70;1.47;;;;;;;;;;5074677;28;20036;-59
2023/11/18 00:55:19;;;;;;;5.13;1.47;;;;;;;;;;5074794;28;20058;-59
2023/11/18 00:57:46;;;;;;;1.07;0.83;;;;;;;;;;5074635;28;20483;-59
2023/11/18 01:00:15;;;;;;;2.07;1.30;;;;;;;;;;5074136;28;20133;-59
2023/11/18 01:02:46;;;;;;;3.63;1.30;;;;;;;;;;5070833;28;20032;-59
2023/11/18 01:05:13;;;;;;;2.33;1.30;;;;;;;;;;5068969;28;20050;-59
2023/11/18 01:07:40;;;;;;;1.53;0.90;;;;;;;;;;5067732;28;20036;-59
2023/11/18 01:10:09;;;;;;;1.03;0.80;;;;;;;;;;5069454;28;20550;-59
2023/11/18 01:12:37;;;;;;;4.10;0.67;;;;;;;;;;5072106;28;20060;-59
2023/11/18 01:15:04;;;;;;;3.37;1.13;;;;;;;;;;5074343;28;20024;-59
2023/11/18 01:17:31;;;;;;;2.83;1.70;;;;;;;;;;5074416;28;20541;-59
2023/11/18 01:19:58;;;;;;;2.47;1.43;;;;;;;;;;5074276;28;20082;-59
2023/11/18 01:22:25;;;;;;;3.03;1.37;;;;;;;;;;5074485;28;20426;-59
2023/11/18 01:24:52;;;;;;;2.53;0.73;;;;;;;;;;5070943;28;20079;-58
2023/11/18 01:27:20;;;;;;;1.80;1.00;;;;;;;;;;5069572;28;20369;-57
2023/11/18 01:29:47;;;;;;;1.87;1.10;;;;;;;;;;5068758;28;20087;-58
2023/11/18 01:32:14;;;;;;;2.73;1.10;;;;;;;;;;5068542;28;20024;-59
2023/11/18 01:34:41;;;;;;;1.53;0.97;;;;;;;;;;5051010;28;20033;-58
2023/11/18 01:37:07;;;;;;;2.33;1.07;;;;;;;;;;5054177;28;20060;-58
2023/11/18 01:39:34;;;;;;;1.07;0.77;;;;;;;;;;5054033;28;20135;-58
2023/11/18 01:42:01;;;;;;;1.20;0.50;;;;;;;;;;5054346;28;20029;-58
2023/11/18 01:44:30;;;;;;;1.93;1.27;;;;;;;;;;5071328;28;20028;-58
2023/11/18 01:47:05;;;;;;;3.30;1.43;;;;;;;;;;5071705;28;20112;-59
2023/11/18 01:49:33;;;;;;;5.67;1.73;;;;;;;;;;5068801;28;20025;-58
2023/11/18 01:52:01;;;;;;;2.90;0.97;;;;;;;;;;5068766;28;20059;-58
2023/11/18 01:54:28;;;;;;;11.47;1.60;;;;;;;;;;5068656;28;20383;-58
2023/11/18 01:56:55;;;;;;;2.47;1.40;;;;;;;;;;5063799;28;20139;-58
2023/11/18 01:59:22;;;;;;;3.03;1.47;;;;;;;;;;5053205;28;20471;-58
2023/11/18 02:01:51;;;;;;;15.23;1.97;;;;;;;;;;5053742;28;20116;-58
2023/11/18 02:04:19;;;;;;;1.40;0.70;;;;;;;;;;5053361;28;20057;-58
2023/11/18 02:06:47;;;;;;;2.87;1.17;;;;;;;;;;5057068;28;20051;-57
2023/11/18 02:09:17;;;;;;;1.60;1.00;;;;;;;;;;5071593;28;20129;-58
2023/11/18 02:11:48;;;;;;;1.43;1.10;;;;;;;;;;5068043;28;20028;-58
2023/11/18 02:14:17;;;;;;;3.30;1.50;;;;;;;;;;5068050;28;20552;-58
2023/11/18 02:16:45;;;;;;;8.03;1.30;;;;;;;;;;5068074;28;20484;-58
2023/11/18 02:19:21;;;;;;;2.07;1.03;;;;;;;;;;5069038;28;20085;-58
2023/11/18 02:21:49;;;;;;;2.57;1.27;;;;;;;;;;5059653;28;20052;-58
2023/11/18 02:24:33;;;;;;;2.77;1.33;;;;;;;;;;5061253;28;20067;-58
2023/11/18 02:27:00;;;;;;;3.57;1.30;;;;;;;;;;5072784;28;20033;-58
2023/11/18 02:29:28;;;;;;;3.80;1.60;;;;;;;;;;5073079;28;20031;-58
2023/11/18 02:31:59;;;;;;;2.37;1.50;;;;;;;;;;5069179;28;20029;-58
2023/11/18 02:34:28;;;;;;;2.00;1.23;;;;;;;;;;5047682;28;20483;-59
2023/11/18 02:37:00;;;;;;;2.63;1.30;;;;;;;;;;5047824;28;20100;-58
2023/11/18 02:39:47;;;;;;;4.87;1.67;;;;;;;;;;5047780;28;20036;-57
2023/11/18 02:42:14;;;;;;;2.23;1.20;;;;;;;;;;5050195;28;20025;-58
2023/11/18 02:44:41;;;;;;;2.97;1.17;;;;;;;;;;5052430;28;20031;-58
2023/11/18 02:47:08;;;;;;;7.60;1.17;;;;;;;;;;5064552;28;20070;-58
2023/11/18 02:49:37;;;;;;;1.63;0.87;;;;;;;;;;5072740;28;20016;-58
2023/11/18 02:52:04;;;;;;;1.87;0.97;;;;;;;;;;5059804;28;20037;-58
2023/11/18 02:54:31;;;;;;;4.17;1.23;;;;;;;;;;5049511;28;20051;-58
2023/11/18 02:56:58;;;;;;;1.90;1.13;;;;;;;;;;5047301;28;20021;-58
2023/11/18 02:59:25;;;;;;;1.50;0.77;;;;;;;;;;5052302;28;20558;-58
2023/11/18 03:01:54;;;;;;;8.50;1.57;;;;;;;;;;5051858;28;20025;-58
2023/11/18 03:04:23;;;;;;;1.27;0.77;;;;;;;;;;5051084;28;20104;-58
2023/11/18 03:06:50;;;;;;;3.60;0.80;;;;;;;;;;5072241;28;20107;-58
2023/11/18 03:09:18;;;;;;;19.27;1.03;;;;;;;;;;5072305;28;20550;-58
2023/11/18 03:11:45;;;;;;;2.33;1.23;;;;;;;;;;5072301;28;20028;-58
2023/11/18 03:14:12;;;;;;;2.03;1.13;;;;;;;;;;5071751;28;20029;-58
2023/11/18 03:16:39;;;;;;;0.90;0.70;;;;;;;;;;5066898;28;20029;-58
2023/11/18 03:19:06;;;;;;;7.63;1.20;;;;;;;;;;5046676;28;20021;-58
2023/11/18 03:21:33;;;;;;;1.43;0.77;;;;;;;;;;5046775;28;20033;-58
2023/11/18 03:24:00;;;;;;;6.77;1.70;;;;;;;;;;5046966;28;20049;-58
2023/11/18 03:26:26;;;;;;;0.77;0.50;;;;;;;;;;5047787;28;20510;-58
2023/11/18 03:28:53;;;;;;;1.70;0.97;;;;;;;;;;5051693;28;20032;-58
2023/11/18 03:31:20;;;;;;;5.13;1.40;;;;;;;;;;5051115;28;20499;-58
2023/11/18 03:33:46;;;;;;;8.17;1.30;;;;;;;;;;5052055;28;20025;-58
2023/11/18 03:36:13;;;;;;;2.63;0.87;;;;;;;;;;5052020;28;20033;-58
2023/11/18 03:38:40;;;;;;;3.07;1.13;;;;;;;;;;5051016;28;20052;-58
2023/11/18 03:41:08;;;;;;;0.87;0.73;;;;;;;;;;5046691;28;20024;-58
2023/11/18 03:43:35;;;;;;;1.63;0.40;;;;;;;;;;5046568;28;20087;-58
2023/11/18 03:46:01;;;;;;;1.73;1.10;;;;;;;;;;5046311;28;20029;-58
2023/11/18 03:48:28;;;;;;;44.87;2.77;;;;;;;;;;5046620;28;20025;-58
2023/11/18 03:50:54;;;;;;;1.37;0.93;;;;;;;;;;5051516;28;20025;-58
2023/11/18 03:53:21;;;;;;;1.87;0.93;;;;;;;;;;5056585;28;20051;-58
2023/11/18 03:55:48;;;;;;;1.93;1.10;;;;;;;;;;5071872;28;20021;-58
2023/11/18 03:58:14;;;;;;;1.67;1.07;;;;;;;;;;5071718;28;20097;-58
2023/11/18 04:00:41;;;;;;;1.27;0.90;;;;;;;;;;5072023;28;20497;-57
2023/11/18 04:03:09;;;;;;;3.27;0.80;;;;;;;;;;5066290;28;20108;-60
2023/11/18 04:05:38;;;;;;;3.53;1.30;;;;;;;;;;5065993;28;20029;-58
2023/11/18 04:08:06;;;;;;;0.93;0.63;;;;;;;;;;5065776;28;20024;-58
2023/11/18 04:10:33;;;;;;;1.10;0.73;;;;;;;;;;5066204;28;20068;-58
2023/11/18 04:12:59;;;;;;;4.90;1.00;;;;;;;;;;5070648;28;20028;-58
2023/11/18 04:15:26;;;;;;;4.17;1.17;;;;;;;;;;5071674;28;20024;-57
2023/11/18 04:17:53;;;;;;;0.93;0.70;;;;;;;;;;5071473;28;20515;-58
2023/11/18 04:20:20;;;;;;;2.43;1.10;;;;;;;;;;5071661;28;20104;-58
2023/11/18 04:22:46;;;;;;;1.03;0.70;;;;;;;;;;5071508;28;20093;-57
2023/11/18 04:25:13;;;;;;;3.13;1.10;;;;;;;;;;5066743;28;20033;-57
2023/11/18 04:27:40;;;;;;;1.70;1.00;;;;;;;;;;5065959;28;20028;-58
2023/11/18 04:30:08;;;;;;;4.30;1.50;;;;;;;;;;5066114;28;20021;-57
2023/11/18 04:32:36;;;;;;;0.37;0.30;;;;;;;;;;5066101;28;20433;-57
2023/11/18 04:35:08;;;;;;;1.73;1.03;;;;;;;;;;5069531;28;20475;-57
2023/11/18 04:37:38;;;;;;;2.50;1.37;;;;;;;;;;5071255;28;20032;-58
2023/11/18 04:40:04;;;;;;;12.00;0.80;;;;;;;;;;5071319;28;20039;-58
2023/11/18 04:42:32;;;;;;;5.40;0.77;;;;;;;;;;5073777;28;20425;-58
2023/11/18 04:44:59;;;;;;;1.03;0.83;;;;;;;;;;5075129;28;20029;-58
2023/11/18 04:47:26;;;;;;;1.50;1.17;;;;;;;;;;5071256;28;20035;-58
2023/11/18 04:49:53;;;;;;;1.37;1.00;;;;;;;;;;5069508;28;20135;-58
2023/11/18 04:52:20;;;;;;;1.50;0.73;;;;;;;;;;5069498;28;20111;-58
2023/11/18 04:54:47;;;;;;;2.47;1.17;;;;;;;;;;5052618;28;20041;-58
2023/11/18 04:57:15;;;;;;;2.73;1.07;;;;;;;;;;5052329;28;20029;-58
2023/11/18 04:59:43;;;;;;;1.57;0.80;;;;;;;;;;5054101;28;20376;-58
2023/11/18 05:02:10;;;;;;;1.53;0.70;;;;;;;;;;5054846;28;20021;-58
2023/11/18 05:04:37;;;;;;;0.83;0.63;;;;;;;;;;5054776;28;20025;-58
2023/11/18 05:07:04;;;;;;;1.43;0.90;;;;;;;;;;5060739;28;20043;-58
2023/11/18 05:09:31;;;;;;;1.53;1.00;;;;;;;;;;5071547;28;20033;-57
2023/11/18 05:12:02;;;;;;;2.37;1.10;;;;;;;;;;5069140;28;20111;-57
2023/11/18 05:14:28;;;;;;;11.53;0.97;;;;;;;;;;5069013;28;20111;-57
2023/11/18 05:16:55;;;;;;;3.10;1.23;;;;;;;;;;5068729;28;20059;-58
2023/11/18 05:19:22;;;;;;;1.70;0.93;;;;;;;;;;5071558;28;20035;-58
2023/11/18 05:21:51;;;;;;;2.73;1.10;;;;;;;;;;5074437;28;20484;-58
2023/11/18 05:24:18;;;;;;;1.60;1.00;;;;;;;;;;5074387;28;20471;-58
2023/11/18 05:26:45;;;;;;;5.23;1.53;;;;;;;;;;5074143;28;20109;-57
2023/11/18 05:29:16;;;;;;;1.23;0.93;;;;;;;;;;5074206;28;20025;-58
2023/11/18 05:31:43;;;;;;;3.00;0.50;;;;;;;;;;5071660;28;20036;-58
2023/11/18 05:34:12;;;;;;;1.90;1.00;;;;;;;;;;5068551;28;20050;-58
2023/11/18 05:36:40;;;;;;;1.40;0.83;;;;;;;;;;5066906;28;20035;-58
2023/11/18 05:39:08;;;;;;;1.47;0.77;;;;;;;;;;5068688;28;20035;-58
2023/11/18 05:41:36;;;;;;;4.30;1.37;;;;;;;;;;5070414;28;20482;-57
2023/11/18 05:44:03;;;;;;;1.70;0.73;;;;;;;;;;5073872;28;20051;-57
2023/11/18 05:46:29;;;;;;;0.77;0.60;;;;;;;;;;5073958;28;20031;-58
2023/11/18 05:48:57;;;;;;;3.60;0.90;;;;;;;;;;5073976;28;20040;-56
2023/11/18 05:51:28;;;;;;;22.57;1.03;;;;;;;;;;5073308;28;20107;-57
2023/11/18 05:53:55;;;;;;;2.23;1.17;;;;;;;;;;5061302;28;20045;-57
2023/11/18 05:56:22;;;;;;;1.20;0.70;;;;;;;;;;5048521;28;20487;-57
2023/11/18 05:58:49;;;;;;;13.43;1.17;;;;;;;;;;5048153;28;20369;-58
2023/11/18 06:01:16;;;;;;;0.70;0.50;;;;;;;;;;5048560;28;20380;-57
2023/11/18 06:03:43;;;;;;;1.00;0.47;;;;;;;;;;5049171;28;20041;-57
2023/11/18 06:06:11;;;;;;;4.33;1.07;;;;;;;;;;5053615;28;20087;-57
2023/11/18 06:08:41;;;;;;;0.70;0.60;;;;;;;;;;5053229;28;20426;-57
2023/11/18 06:11:15;;;;;;;3.30;0.90;;;;;;;;;;5053407;28;20588;-57
2023/11/18 06:13:49;;;;;;;0.53;0.33;;;;;;;;;;5053390;28;20063;-57
2023/11/18 06:16:22;;;;;;;1.88;1.05;;;;;;;;;;5051772;28;20388;-57
2023/11/18 06:18:49;;;;;;;4.63;0.80;;;;;;;;;;5050136;28;20033;-57
2023/11/18 06:21:18;;;;;;;0.90;0.53;;;;;;;;;;5066718;28;20427;-58
2023/11/18 06:23:48;;;;;;;0.43;0.37;;;;;;;;;;5058729;28;20453;-57
2023/11/18 06:26:15;;;;;;;1.20;0.70;;;;;;;;;;5069068;28;20115;-57
2023/11/18 06:28:43;;;;;;;0.80;0.70;;;;;;;;;;5057656;28;20021;-57
2023/11/18 06:31:11;;;;;;;1.20;0.90;;;;;;;;;;5053025;28;20029;-57
2023/11/18 06:33:45;;;;;;;3.87;1.07;;;;;;;;;;5053131;28;20029;-57
2023/11/18 06:36:14;;;;;;;0.43;0.43;;;;;;;;;;5053133;28;20082;-59
2023/11/18 06:38:41;;;;;;;2.20;1.07;;;;;;;;;;5051341;28;20024;-57
2023/11/18 06:41:12;;;;;;;0.57;0.43;;;;;;;;;;5064950;28;20025;-57
2023/11/18 06:46:25;;;;;;;2.77;0.90;;;;;;;;;;5067279;28;20051;-57
2023/11/18 06:48:55;;;;;;;2.03;1.03;;;;;;;;;;5068907;28;20376;-57
2023/11/18 06:51:24;;;;;;;6.90;1.40;;;;;;;;;;5072640;28;20522;-58
2023/11/18 06:53:56;;;;;;;1.90;0.97;;;;;;;;;;5072526;28;20082;-57
2023/11/18 06:56:27;;;;;;;1.83;1.10;;;;;;;;;;5072543;28;20024;-57
2023/11/18 06:58:54;;;;;;;1.37;0.80;;;;;;;;;;5072522;28;20439;-56
2023/11/18 07:01:21;;;;;;;1.60;0.93;;;;;;;;;;5070118;28;20019;-57
2023/11/18 07:03:51;;;;;;;2.03;1.00;;;;;;;;;;5067325;28;20036;-57
2023/11/18 07:06:22;;;;;;;1.00;0.70;;;;;;;;;;5066661;28;20053;-58
2023/11/18 07:08:52;;;;;;;0.80;0.40;;;;;;;;;;5067228;28;20064;-57
2023/11/18 07:11:20;;;;;;;3.40;1.30;;;;;;;;;;5068832;28;20512;-57
2023/11/18 07:13:47;;;;;;;2.27;0.73;;;;;;;;;;5071582;28;20032;-57
2023/11/18 07:16:14;;;;;;;1.20;0.80;;;;;;;;;;5071658;28;20032;-57
2023/11/18 07:18:42;;;;;;;1.00;0.57;;;;;;;;;;5072123;28;20025;-57
2023/11/18 07:21:09;;;;;;;2.63;1.33;;;;;;;;;;5071863;28;20035;-57
2023/11/18 07:23:36;;;;;;;2.37;1.00;;;;;;;;;;5069915;28;20382;-57
2023/11/18 07:26:05;;;;;;;2.23;1.30;;;;;;;;;;5067027;28;20107;-58
2023/11/18 07:28:32;;;;;;;0.50;0.50;;;;;;;;;;5066280;28;20025;-57
2023/11/18 07:30:59;;;;;;;0.87;0.67;;;;;;;;;;5066969;28;20028;-57
2023/11/18 07:33:26;;;;;;;1.20;1.00;;;;;;;;;;5067069;28;20024;-57
2023/11/18 07:35:53;;;;;;;2.90;1.10;;;;;;;;;;5071958;28;20042;-57
2023/11/18 07:38:20;;;;;;;5.07;0.77;;;;;;;;;;5053762;28;20115;-57
2023/11/18 07:40:47;;;;;;;0.53;0.40;;;;;;;;;;5071977;28;20037;-57
2023/11/18 07:43:14;;;;;;;0.37;0.33;;;;;;;;;;5071817;28;20028;-57
2023/11/18 07:45:47;;;;;;;3.03;1.20;;;;;;;;;;5070604;28;20036;-57
2023/11/18 07:48:16;;;;;;;6.80;1.23;;;;;;;;;;5066114;28;20051;-57
2023/11/18 07:50:50;;;;;;;1.90;1.17;;;;;;;;;;5066346;28;20048;-57
2023/11/18 07:53:17;;;;;;;4.57;1.17;;;;;;;;;;5066125;28;20119;-57
2023/11/18 07:55:44;;;;;;;2.47;1.10;;;;;;;;;;5066751;28;20384;-56
2023/11/18 07:58:11;;;;;;;0.40;0.40;;;;;;;;;;5071507;28;20032;-57
2023/11/18 08:00:45;;;;;;;1.53;0.90;;;;;;;;;;5071369;28;20075;-57
2023/11/18 08:03:13;;;;;;;1.70;1.17;;;;;;;;;;5071484;28;20024;-57
2023/11/18 08:05:40;;;;;;;1.17;0.73;;;;;;;;;;5071570;28;20040;-57
2023/11/18 08:08:07;;;;;;;2.03;0.93;;;;;;;;;;5070523;28;20029;-57
2023/11/18 08:10:37;;;;;;;0.97;0.80;;;;;;;;;;5062337;28;20546;-57
2023/11/18 08:13:09;;;;;;;2.37;1.20;;;;;;;;;;5046412;28;20087;-56
2023/11/18 08:15:39;;;;;;;0.50;0.40;;;;;;;;;;5057991;28;20134;-57
2023/11/18 08:18:06;;;;;;;1.03;0.70;;;;;;;;;;5070505;28;20013;-57
2023/11/18 08:20:33;;;;;;;2.10;1.03;;;;;;;;;;5075137;28;20066;-57
2023/11/18 08:23:00;;;;;;;2.60;0.60;;;;;;;;;;5075525;28;20036;-57
2023/11/18 08:25:26;;;;;;;1.87;0.90;;;;;;;;;;5075127;28;20036;-57
2023/11/18 08:27:53;;;;;;;1.07;0.63;;;;;;;;;;5074867;28;20028;-57
2023/11/18 08:30:20;;;;;;;1.23;0.90;;;;;;;;;;5074756;28;20044;-57
2023/11/18 08:32:48;;;;;;;4.73;0.67;;;;;;;;;;5069657;28;20035;-57
2023/11/18 08:35:15;;;;;;;0.80;0.70;;;;;;;;;;5069855;28;20040;-57
2023/11/18 08:37:45;;;;;;;0.50;0.40;;;;;;;;;;5069741;28;20034;-57
2023/11/18 08:40:15;;;;;;;1.57;0.77;;;;;;;;;;5069450;28;20036;-58
2023/11/18 08:42:49;;;;;;;2.50;0.60;;;;;;;;;;5074879;28;20021;-57
2023/11/18 08:45:27;;;;;;;1.17;0.80;;;;;;;;;;5074914;28;20035;-57
2023/11/18 08:47:55;;;;;;;1.33;0.73;;;;;;;;;;5074553;28;20373;-57
2023/11/18 08:50:23;;;;;;;0.17;0.17;;;;;;;;;;5074896;28;20159;-57
2023/11/18 08:52:57;;;;;;;0.63;0.50;;;;;;;;;;5073558;28;20036;-57
2023/11/18 08:55:40;;;;;;;1.87;0.63;;;;;;;;;;5069324;28;20032;-57
2023/11/18 08:58:28;;;;;;;1.10;0.60;;;;;;;;;;5069219;28;20059;-57
2023/11/18 09:01:04;;;;;;;0.40;0.40;;;;;;;;;;5069648;28;20072;-57
2023/11/18 09:03:34;;;;;;;1.33;0.70;;;;;;;;;;5070809;28;20483;-57
2023/11/18 09:06:05;;;;;;;0.33;0.33;;;;;;;;;;5074807;28;20115;-57
2023/11/18 09:08:38;;;;;;;0.87;0.73;;;;;;;;;;5074259;28;20028;-57
2023/11/18 09:11:06;;;;;;;1.27;0.57;;;;;;;;;;5074317;28;20035;-57
2023/11/18 09:13:34;;;;;;;0.27;0.20;;;;;;;;;;5074305;28;20081;-57
2023/11/18 09:16:03;;;;;;;0.40;0.40;;;;;;;;;;5067357;28;21976;-58
2023/11/18 09:18:33;;;;;;;1.40;0.30;;;;;;;;;;5056676;28;20032;-57
2023/11/18 09:21:01;;;;;;;1.03;0.63;;;;;;;;;;5069140;28;20029;-57
2023/11/18 09:23:28;;;;;;;0.43;0.40;;;;;;;;;;5053791;28;20048;-56
2023/11/18 09:25:56;;;;;;;0.53;0.40;;;;;;;;;;5050878;28;20051;-56
2023/11/18 09:28:28;;;;;;;0.63;0.30;;;;;;;;;;5054830;28;20039;-57
2023/11/18 09:30:57;;;;;;;0.90;0.57;;;;;;;;;;5063572;28;20087;-57
2023/11/18 09:33:36;;;;;;;2.73;0.87;;;;;;;;;;5054182;28;20029;-56
2023/11/18 09:36:07;;;;;;;1.27;0.50;;;;;;;;;;5054440;28;20021;-56
2023/11/18 09:38:37;;;;;;;2.00;0.47;;;;;;;;;;5052369;28;20043;-56
2023/11/18 09:41:07;;;;;;;1.30;0.63;;;;;;;;;;5048646;28;20037;-57
2023/11/18 09:43:45;;;;;;;0.30;0.30;;;;;;;;;;5048746;28;20021;-56
2023/11/18 09:46:13;;;;;;;0.40;0.40;;;;;;;;;;5068465;28;20037;-56
2023/11/18 09:48:52;;;;;;;0.17;0.17;;;;;;;;;;5070989;28;20031;-57
2023/11/18 09:51:23;;;;;;;2.33;0.60;;;;;;;;;;5073374;28;20079;-57
2023/11/18 09:53:54;;;;;;;2.63;0.77;;;;;;;;;;5073565;28;20032;-57
2023/11/18 09:56:37;;;;;;;0.13;0.13;;;;;;;;;;5073497;28;20525;-57
2023/11/18 09:59:15;;;;;;;0.10;0.10;;;;;;;;;;5057707;28;20037;-56
2023/11/18 10:01:46;;;;;;;0.27;0.27;;;;;;;;;;5069022;28;20565;-57
2023/11/18 10:04:17;;;;;;;0.37;0.33;;;;;;;;;;5048520;28;20033;-56
2023/11/18 10:06:45;;;;;;;0.30;0.30;;;;;;;;;;5048585;28;20037;-57
2023/11/18 10:09:15;;;;;;;0.83;0.30;;;;;;;;;;5067910;28;20039;-57
2023/11/18 10:11:47;;;;;;;0.10;0.10;;;;;;;;;;5071105;28;20056;-57
2023/11/18 10:14:17;;;;;;;0.20;0.20;;;;;;;;;;5057796;28;20028;-57
2023/11/18 10:16:47;;;;;;;0.30;0.20;;;;;;;;;;5073372;28;20028;-57
2023/11/18 10:19:14;;;;;;;0.50;0.40;;;;;;;;;;5073199;28;20042;-57
2023/11/18 10:21:41;;;;;;;1.30;0.73;;;;;;;;;;5073085;28;20036;-57
2023/11/18 10:24:14;;;;;;;1.07;0.70;;;;;;;;;;5067959;28;20430;-57
2023/11/18 10:26:47;;;;;;;0.63;0.27;;;;;;;;;;5067606;28;20111;-57
2023/11/18 10:29:18;;;;;;;0.30;0.30;;;;;;;;;;5067656;28;20032;-57
2023/11/18 10:31:45;;;;;;;0.60;0.33;;;;;;;;;;5067086;28;20056;-57
2023/11/18 10:34:15;;;;;;;0.10;0.10;;;;;;;;;;5071033;28;20455;-57
2023/11/18 10:36:43;;;;;;;1.83;0.90;;;;;;;;;;5073057;28;20030;-57
2023/11/18 10:39:16;;;;;;;0.97;0.50;;;;;;;;;;5071961;28;20266;-57
2023/11/18 10:41:45;;;;;;;0.83;0.57;;;;;;;;;;5072371;28;20096;-57
2023/11/18 10:44:15;;;;;;;1.00;0.73;;;;;;;;;;5072964;28;20350;-57
2023/11/18 10:46:48;;;;;;;1.00;0.67;;;;;;;;;;5067516;28;20301;-57
2023/11/18 10:49:16;;;;;;;0.83;0.50;;;;;;;;;;5067084;28;20261;-57
2023/11/18 10:51:47;;;;;;;1.80;0.90;;;;;;;;;;5067167;28;20253;-57
2023/11/18 10:54:17;;;;;;;1.03;0.73;;;;;;;;;;5066936;28;20273;-57
2023/11/18 10:56:50;;;;;;;1.27;0.70;;;;;;;;;;5071705;28;20301;-57
2023/11/18 10:59:18;;;;;;;8.80;1.33;;;;;;;;;;5072134;28;20257;-57
2023/11/18 11:01:48;;;;;;;19.33;0.87;;;;;;;;;;5072390;28;20261;-57
2023/11/18 11:04:24;;;;;;;1.20;0.60;;;;;;;;;;5071834;28;20271;-57
2023/11/18 11:06:56;;;;;;;0.73;0.63;;;;;;;;;;5071605;28;20328;-57
2023/11/18 11:09:35;;;;;;;1.17;1.07;;;;;;;;;;5067308;28;20265;-57
2023/11/18 11:12:06;;;;;;;1.93;1.00;;;;;;;;;;5067159;28;20265;-58
2023/11/18 11:14:38;;;;;;;1.87;0.43;;;;;;;;;;5066611;28;20273;-56
2023/11/18 11:17:13;;;;;;;4.43;0.80;;;;;;;;;;5066487;28;20270;-57
2023/11/18 11:19:44;;;;;;;;;;;;;;;;;;5072497;28;20307;-57
2023/11/18 11:22:15;;;;;;;0.60;0.27;;;;;;;;;;5071963;28;20480;-57
2023/11/18 11:24:55;;;;;;;0.67;0.40;;;;;;;;;;5071585;28;20303;-57
2023/11/18 11:27:28;;;;;;;1.57;1.10;;;;;;;;;;5072047;28;20285;-57
2023/11/18 11:30:10;;;;;;;1.80;0.80;;;;;;;;;;5069929;28;20272;-56
2023/11/18 11:32:41;;;;;;;1.20;0.87;;;;;;;;;;5066669;28;20269;-57
2023/11/18 11:35:16;;;;;;;0.97;0.60;;;;;;;;;;5066269;28;20273;-57
2023/11/18 11:37:44;;;;;;;2.40;1.47;;;;;;;;;;5066959;28;20269;-57
2023/11/18 11:40:16;;;;;;;2.33;1.07;;;;;;;;;;5068426;28;20271;-57
2023/11/18 11:42:43;;;;;;;1.27;0.80;;;;;;;;;;5071600;28;20273;-57
2023/11/18 11:45:19;;;;;;;3.13;1.13;;;;;;;;;;5071612;28;20288;-57
2023/11/18 11:47:50;;;;;;;0.67;0.53;;;;;;;;;;5071320;28;20262;-57
2023/11/18 11:50:29;;;;;;;1.80;0.90;;;;;;;;;;5071077;28;20752;-56
2023/11/18 11:52:59;;;;;;;1.37;0.87;;;;;;;;;;5068635;28;20316;-57
2023/11/18 11:55:39;;;;;;;1.17;0.90;;;;;;;;;;5066371;28;20257;-57
2023/11/18 11:58:25;;;;;;;0.53;0.50;;;;;;;;;;5066160;28;20270;-57
2023/11/18 12:00:54;;;;;;;0.40;0.40;;;;;;;;;;5066197;28;20277;-56
2023/11/18 12:03:24;;;;;;;2.17;0.70;;;;;;;;;;5069975;28;20391;-57
2023/11/18 12:05:56;;;;;;;0.60;0.40;;;;;;;;;;5071567;28;20285;-57
2023/11/18 12:08:25;;;;;;;0.80;0.63;;;;;;;;;;5071206;28;20276;-56
2023/11/18 12:10:53;;;;;;;1.07;0.57;;;;;;;;;;5071424;28;20265;-56
2023/11/18 12:13:21;;;;;;;18.60;1.03;;;;;;;;;;5071724;28;20272;-57
2023/11/18 12:15:56;;;;;;;0.70;0.50;;;;;;;;;;5067122;28;20366;-57
2023/11/18 12:18:26;;;;;;;0.93;0.43;;;;;;;;;;5066019;28;20335;-57
2023/11/18 12:21:02;;;;;;;0.77;0.57;;;;;;;;;;5065767;28;20348;-57
2023/11/18 12:23:30;;;;;;;9.90;0.93;;;;;;;;;;5065740;28;20846;-57
2023/11/18 12:26:02;;;;;;;0.10;0.10;;;;;;;;;;5069639;28;20289;-57
2023/11/18 12:28:34;;;;;;;0.47;0.40;;;;;;;;;;5071202;28;20315;-56
2023/11/18 12:31:16;;;;;;;0.27;0.20;;;;;;;;;;5061069;28;20265;-57
2023/11/18 12:33:52;;;;;;;0.50;0.43;;;;;;;;;;5070978;28;20280;-56
2023/11/18 12:36:32;;;;;;;0.27;0.27;;;;;;;;;;5071084;28;20309;-56
2023/11/18 12:39:17;;;;;;;0.83;0.53;;;;;;;;;;5066138;28;20277;-57
2023/11/18 12:41:44;;;;;;;3.08;0.70;;;;;;;;;;5065777;28;20723;-57
2023/11/18 12:44:35;;;;;;;1.50;0.47;;;;;;;;;;5066283;28;20047;-57
2023/11/18 12:47:21;;;;;;;2.83;0.70;;;;;;;;;;5066878;28;20293;-57
2023/11/18 12:49:54;;;;;;;0.33;0.30;;;;;;;;;;5071352;28;20265;-57
2023/11/18 12:52:21;;;;;;;2.43;0.93;;;;;;;;;;5070911;28;20335;-57
2023/11/18 12:54:51;;;;;;;0.60;0.50;;;;;;;;;;5070907;28;20720;-56
2023/11/18 12:57:24;;;;;;;0.67;0.63;;;;;;;;;;5071152;28;20348;-57
2023/11/18 12:59:55;;;;;;;2.57;0.87;;;;;;;;;;5068114;28;20274;-57
2023/11/18 13:02:23;;;;;;;1.67;0.90;;;;;;;;;;5067168;28;20744;-57
2023/11/18 13:04:53;;;;;;;17.67;1.67;;;;;;;;;;5069414;28;20613;-56
2023/11/18 13:07:24;;;;;;;2.97;0.97;;;;;;;;;;5069268;28;20819;-57
2023/11/18 13:09:54;;;;;;;1.40;0.97;;;;;;;;;;5071896;28;20324;-56
2023/11/18 13:12:23;;;;;;;3.87;1.37;;;;;;;;;;5074083;28;20352;-57
2023/11/18 13:14:54;;;;;;;4.90;1.43;;;;;;;;;;5071085;28;20269;-57
2023/11/18 13:17:21;;;;;;;2.30;1.17;;;;;;;;;;5074323;28;20341;-57
2023/11/18 13:19:54;;;;;;;1.03;0.83;;;;;;;;;;5074606;28;20253;-56
2023/11/18 13:22:21;;;;;;;3.70;2.37;;;;;;;;;;5051267;28;20277;-57
2023/11/18 13:24:49;;;;;;;12.83;2.00;;;;;;;;;;5048609;28;20266;-57
2023/11/18 13:27:17;;;;;;;5.17;2.23;;;;;;;;;;5048866;28;20313;-56
2023/11/18 13:29:53;;;;;;;3.70;2.37;;;;;;;;;;5060850;28;20273;-57
2023/11/18 13:32:23;;;;;;;5.30;1.53;;;;;;;;;;5071591;28;20628;-56
2023/11/18 13:34:51;;;;;;;21.20;1.83;;;;;;;;;;5074215;28;20253;-57
2023/11/18 13:37:21;;;;;;;16.20;1.93;;;;;;;;;;5074109;28;20272;-57
2023/11/18 13:40:00;;;;;;;4.40;2.73;;;;;;;;;;5073675;28;20036;-57
2023/11/18 13:42:28;;;;;;;12.80;2.63;;;;;;;;;;5074338;28;20371;-56
2023/11/18 13:45:00;;;;;;;14.10;2.33;;;;;;;;;;5070400;28;20029;-57
2023/11/18 13:47:30;;;;;;;3.90;2.33;;;;;;;;;;5068499;28;20040;-57
2023/11/18 13:49:58;;;;;;;20.37;4.10;;;;;;;;;;5068291;28;20032;-57
2023/11/18 13:52:25;;;;;;;5.17;3.17;;;;;;;;;;5068678;28;20384;-57
2023/11/18 13:54:57;;;;;;;8.67;3.63;;;;;;;;;;5071402;28;20089;-58
2023/11/18 13:57:24;;;;;;;8.00;2.87;;;;;;;;;;5073989;28;20030;-57
2023/11/18 13:59:51;;;;;;;6.30;2.80;;;;;;;;;;5073674;28;20096;-57
2023/11/18 14:02:18;;;;;;;6.20;3.37;;;;;;;;;;5073731;28;20033;-57
2023/11/18 14:04:45;;;;;;;5.07;2.80;;;;;;;;;;5073413;28;20025;-57
2023/11/18 14:07:17;;;;;;;7.87;3.10;;;;;;;;;;5069928;28;20032;-57
2023/11/18 14:09:46;;;;;;;7.17;2.63;;;;;;;;;;5068210;28;20116;-57
2023/11/18 14:12:14;;;;;;;7.10;2.87;;;;;;;;;;5068201;28;20033;-57
2023/11/18 14:14:49;;;;;;;5.57;2.43;;;;;;;;;;5067475;28;20032;-58
2023/11/18 14:17:16;;;;;;;5.03;2.87;;;;;;;;;;5069241;28;20029;-57
2023/11/18 14:19:43;;;;;;;3.23;1.97;;;;;;;;;;5071354;28;20032;-58
2023/11/18 14:22:09;;;;;;;5.77;2.10;;;;;;;;;;5071978;28;20025;-57
2023/11/18 14:24:36;;;;;;;4.13;1.73;;;;;;;;;;5070260;28;20641;-57
2023/11/18 14:27:04;;;;;;;3.67;2.10;;;;;;;;;;5070382;28;20089;-58
2023/11/18 14:29:31;;;;;;;2.80;1.87;;;;;;;;;;5068941;28;20094;-57
2023/11/18 14:31:58;;;;;;;4.87;2.43;;;;;;;;;;5067693;28;20027;-58
2023/11/18 14:34:25;;;;;;;7.33;3.43;;;;;;;;;;5067465;28;20032;-57
2023/11/18 14:36:52;;;;;;;7.30;2.00;;;;;;;;;;5067241;28;20107;-57
2023/11/18 14:39:22;;;;;;;4.03;2.60;;;;;;;;;;5070300;28;20411;-57
2023/11/18 14:41:53;;;;;;;3.93;2.60;;;;;;;;;;5072598;28;20441;-57
2023/11/18 14:44:20;;;;;;;4.80;2.57;;;;;;;;;;5071892;28;20531;-57
2023/11/18 14:46:47;;;;;;;4.80;2.17;;;;;;;;;;5072010;28;20032;-57
2023/11/18 14:49:14;;;;;;;9.03;2.50;;;;;;;;;;5072811;28;20551;-57
2023/11/18 14:51:41;;;;;;;2.43;1.37;;;;;;;;;;5068893;28;20033;-57
2023/11/18 14:54:08;;;;;;;3.87;1.90;;;;;;;;;;5066931;28;20036;-57
2023/11/18 14:56:35;;;;;;;4.17;1.90;;;;;;;;;;5067186;28;20039;-57
2023/11/18 14:59:04;;;;;;;2.43;1.57;;;;;;;;;;5067173;28;20045;-57